Time;durP1;ratioP1;P1;durP2;ratioP2;P2;SDS_P1;SDS_P2;PMS_P1;PMS_P2;Temp;Humidity;BMP_temperature;BMP_pressure;BME280_temperature;BME280_humidity;BME280_pressure;Samples;Min_cycle;Max_cycle;Signal;HPM_P1;HPM_P2
2023/02/11 00:01:30;;;;;;;13.18;3.53;;;7.30;99.90;;;;;;4984331;28;25095;-69
2023/02/11 00:03:57;;;;;;;14.63;3.58;;;7.30;99.90;;;;;;5001203;28;25063;-72
2023/02/11 00:06:24;;;;;;;19.17;4.13;;;7.30;99.90;;;;;;5002067;28;25080;-70
2023/02/11 00:08:50;;;;;;;14.68;3.92;;;7.30;99.90;;;;;;4998243;28;25065;-69
2023/02/11 00:11:18;;;;;;;20.33;4.00;;;7.30;99.90;;;;;;4994153;28;25073;-70
2023/02/11 00:13:44;;;;;;;24.15;3.95;;;7.30;99.90;;;;;;4998020;28;25055;-69
2023/02/11 00:16:13;;;;;;;18.50;4.35;;;7.30;99.90;;;;;;4992872;28;25164;-72
2023/02/11 00:18:39;;;;;;;16.10;4.13;;;7.20;99.90;;;;;;5006050;28;25112;-71
2023/02/11 00:21:13;;;;;;;19.60;4.93;;;7.20;99.90;;;;;;5002896;28;25157;-71
2023/02/11 00:23:38;;;;;;;17.35;3.88;;;7.20;99.90;;;;;;4998309;28;25088;-72
2023/02/11 00:26:18;;;;;;;12.20;3.90;;;7.20;99.90;;;;;;4982757;28;25096;-72
2023/02/11 00:28:45;;;;;;;14.95;4.22;;;7.20;99.90;;;;;;4997667;28;25071;-71
2023/02/11 00:31:11;;;;;;;11.70;4.03;;;7.20;99.90;;;;;;4981354;28;25063;-72
2023/02/11 00:33:37;;;;;;;19.20;3.80;;;7.20;99.90;;;;;;5009149;28;25152;-71
2023/02/11 00:36:08;;;;;;;24.58;5.63;;;7.20;99.90;;;;;;5001809;28;25160;-73
2023/02/11 00:38:34;;;;;;;16.80;6.38;;;7.20;99.90;;;;;;5007014;28;25191;-69
2023/02/11 00:41:00;;;;;;;14.25;3.90;;;7.20;99.90;;;;;;5002781;28;25066;-71
2023/02/11 00:43:26;;;;;;;18.17;4.13;;;7.20;99.90;;;;;;5010094;28;25144;-69
2023/02/11 00:45:51;;;;;;;20.48;4.50;;;7.30;99.90;;;;;;4999422;28;25067;-70
2023/02/11 00:48:17;;;;;;;14.45;4.32;;;7.30;99.90;;;;;;5005800;28;25067;-70
2023/02/11 00:50:43;;;;;;;13.15;4.10;;;7.30;99.90;;;;;;5001671;28;25067;-72
2023/02/11 00:53:09;;;;;;;20.92;5.88;;;7.30;99.90;;;;;;4993589;28;25108;-71
2023/02/11 00:55:34;;;;;;;15.50;3.95;;;7.30;99.90;;;;;;4999693;28;25054;-69
2023/02/11 00:58:00;;;;;;;16.13;3.97;;;7.30;99.90;;;;;;5003648;28;25072;-70
2023/02/11 01:00:26;;;;;;;18.15;4.20;;;7.30;99.90;;;;;;5004396;28;25068;-70
2023/02/11 01:02:52;;;;;;;16.75;5.28;;;7.30;99.90;;;;;;5000487;28;25056;-70
2023/02/11 01:05:18;;;;;;;26.15;4.93;;;7.30;99.90;;;;;;4995665;28;25119;-71
2023/02/11 01:07:44;;;;;;;17.40;5.10;;;7.30;99.90;;;;;;5003055;28;25076;-71
2023/02/11 01:10:10;;;;;;;14.30;4.75;;;7.30;99.90;;;;;;4997395;28;25068;-71
2023/02/11 01:12:35;;;;;;;17.17;4.68;;;7.30;99.90;;;;;;4997406;28;25069;-71
2023/02/11 01:15:01;;;;;;;13.73;4.80;;;7.40;99.90;;;;;;5007519;28;25065;-70
2023/02/11 01:17:27;;;;;;;22.55;5.00;;;7.40;99.90;;;;;;4998118;28;25112;-71
2023/02/11 01:19:53;;;;;;;18.33;4.68;;;7.40;99.90;;;;;;4987859;28;25104;-70
2023/02/11 01:22:18;;;;;;;13.27;4.95;;;7.40;99.90;;;;;;5001378;28;25063;-70
2023/02/11 01:24:44;;;;;;;18.85;4.72;;;7.40;99.90;;;;;;4991934;28;25059;-69
2023/02/11 01:27:09;;;;;;;12.43;4.80;;;7.40;99.90;;;;;;4990645;28;25070;-70
2023/02/11 01:29:35;;;;;;;18.48;5.07;;;7.40;99.90;;;;;;4992532;28;25080;-70
2023/02/11 01:32:00;;;;;;;20.00;4.45;;;7.40;99.90;;;;;;4992518;28;25076;-70
2023/02/11 01:34:26;;;;;;;15.10;6.05;;;7.40;99.90;;;;;;4998370;28;25071;-71
2023/02/11 01:36:58;;;;;;;16.83;4.57;;;7.40;99.90;;;;;;5004750;28;25046;-71
2023/02/11 01:39:25;;;;;;;14.95;5.18;;;7.30;99.90;;;;;;5000452;28;25110;-72
2023/02/11 01:41:52;;;;;;;15.57;5.10;;;7.30;99.90;;;;;;4991033;28;25064;-70
2023/02/11 01:44:32;;;;;;;23.30;4.93;;;7.30;99.90;;;;;;4987919;28;25056;-71
2023/02/11 01:46:58;;;;;;;26.13;5.25;;;7.20;99.90;;;;;;4973082;28;25056;-70
2023/02/11 01:49:29;;;;;;;17.42;4.35;;;7.20;99.90;;;;;;5000393;28;25150;-70
2023/02/11 01:52:02;;;;;;;17.00;5.13;;;7.20;99.90;;;;;;5000724;28;25057;-71
2023/02/11 01:57:22;;;;;;;18.85;4.82;;;7.20;99.90;;;;;;4997092;28;25145;-71
2023/02/11 02:00:09;;;;;;;13.10;4.95;;;7.20;99.90;;;;;;5005166;28;25069;-71
2023/02/11 02:03:03;;;;;;;16.63;5.47;;;7.10;99.90;;;;;;4998709;28;25144;-70
2023/02/11 02:05:59;;;;;;;15.57;5.65;;;7.10;99.90;;;;;;4988604;28;25069;-71
2023/02/11 02:08:30;;;;;;;19.13;5.50;;;7.10;99.90;;;;;;4977674;28;25072;-72
2023/02/11 02:10:59;;;;;;;22.52;6.95;;;7.10;99.90;;;;;;4989063;28;25055;-70
2023/02/11 02:13:27;;;;;;;22.23;6.43;;;7.10;99.90;;;;;;4975618;28;25056;-71
2023/02/11 02:15:56;;;;;;;31.65;5.85;;;7.10;99.90;;;;;;4977173;28;25049;-68
2023/02/11 02:18:50;;;;;;;20.00;5.22;;;7.20;99.90;;;;;;4972500;28;25139;-71
2023/02/11 02:21:53;;;;;;;21.77;5.45;;;7.30;99.90;;;;;;4994366;28;25091;-69
2023/02/11 02:24:24;;;;;;;21.63;4.80;;;7.20;99.90;;;;;;4919243;29;25089;-69
2023/02/11 02:27:16;;;;;;;22.83;6.35;;;7.20;99.90;;;;;;4981776;28;25083;-70
2023/02/11 02:30:13;;;;;;;21.45;6.60;;;7.10;99.90;;;;;;4986680;28;25067;-71
2023/02/11 02:33:02;;;;;;;22.70;7.43;;;7.00;99.90;;;;;;5004101;28;25108;-70
2023/02/11 02:35:44;;;;;;;17.45;5.90;;;7.10;99.90;;;;;;5000484;28;25089;-72
2023/02/11 02:38:29;;;;;;;20.08;6.63;;;7.00;99.90;;;;;;5002677;28;25083;-70
2023/02/11 02:41:05;;;;;;;20.05;6.63;;;6.90;99.90;;;;;;4998332;28;25066;-69
2023/02/11 02:43:32;;;;;;;25.45;7.60;;;6.90;99.90;;;;;;4974924;28;25071;-70
2023/02/11 02:46:31;;;;;;;26.75;8.13;;;6.90;99.90;;;;;;5008399;28;25073;-69
2023/02/11 02:48:58;;;;;;;22.00;7.28;;;6.90;99.90;;;;;;4981048;28;25063;-69
2023/02/11 02:51:54;;;;;;;23.08;7.75;;;6.90;99.90;;;;;;5008526;28;25083;-70
2023/02/11 02:54:35;;;;;;;25.63;9.27;;;6.90;99.90;;;;;;4996815;28;25148;-74
2023/02/11 02:57:29;;;;;;;23.15;7.28;;;6.90;99.90;;;;;;4994999;28;25142;-69
2023/02/11 03:00:20;;;;;;;23.05;7.43;;;6.90;99.90;;;;;;5000827;28;25152;-70
2023/02/11 03:02:46;;;;;;;28.73;7.88;;;7.00;99.90;;;;;;4998184;28;25080;-70
2023/02/11 03:05:35;;;;;;;18.58;7.63;;;7.10;99.90;;;;;;4976190;28;25054;-69
2023/02/11 03:08:09;;;;;;;22.20;7.82;;;7.20;99.90;;;;;;5002980;28;25090;-68
2023/02/11 03:10:40;;;;;;;29.77;8.13;;;7.20;99.90;;;;;;5009393;28;25066;-69
2023/02/11 03:13:07;;;;;;;17.35;7.53;;;7.30;99.90;;;;;;4994641;28;25073;-69
2023/02/11 03:15:38;;;;;;;17.60;7.72;;;7.30;99.90;;;;;;5009074;28;25097;-70
2023/02/11 03:18:07;;;;;;;23.48;9.40;;;7.30;99.90;;;;;;5004946;28;25123;-69
2023/02/11 03:20:36;;;;;;;22.17;8.05;;;7.30;99.90;;;;;;5004019;28;25119;-70
2023/02/11 03:23:11;;;;;;;22.67;7.43;;;7.40;99.90;;;;;;5003776;28;25066;-72
2023/02/11 03:25:42;;;;;;;20.02;8.27;;;7.40;99.90;;;;;;5004481;28;25095;-69
2023/02/11 03:28:28;;;;;;;25.48;8.73;;;7.30;99.90;;;;;;5002735;28;25188;-71
2023/02/11 03:31:05;;;;;;;24.25;9.40;;;7.30;99.90;;;;;;5007573;28;25113;-70
2023/02/11 03:33:50;;;;;;;32.70;8.82;;;7.40;99.90;;;;;;4996612;28;25147;-68
2023/02/11 03:36:46;;;;;;;24.38;9.02;;;7.30;99.90;;;;;;5001023;28;25074;-69
2023/02/11 03:39:18;;;;;;;32.03;9.05;;;7.40;99.90;;;;;;5005774;28;25067;-71
2023/02/11 03:41:46;;;;;;;29.73;10.75;;;7.40;99.90;;;;;;5004763;28;25059;-71
2023/02/11 03:44:14;;;;;;;28.90;9.65;;;7.30;99.90;;;;;;4997961;28;25116;-69
2023/02/11 03:46:43;;;;;;;25.02;9.57;;;7.20;99.90;;;;;;4990750;28;25082;-69
2023/02/11 03:49:12;;;;;;;28.58;9.65;;;7.20;99.90;;;;;;4982757;28;25076;-69
2023/02/11 03:51:39;;;;;;;23.30;9.27;;;7.30;99.90;;;;;;5003760;28;25211;-70
2023/02/11 03:54:10;;;;;;;28.38;10.77;;;7.30;99.90;;;;;;5000922;28;25084;-70
2023/02/11 03:56:45;;;;;;;26.10;9.77;;;7.30;99.90;;;;;;4995698;28;25165;-70
2023/02/11 03:59:11;;;;;;;25.27;10.65;;;7.20;99.90;;;;;;4995450;28;25058;-70
2023/02/11 04:01:36;;;;;;;24.52;9.88;;;7.20;99.90;;;;;;4997218;28;25082;-69
2023/02/11 04:04:02;;;;;;;35.63;10.95;;;7.20;99.90;;;;;;4980173;28;25080;-69
2023/02/11 04:06:28;;;;;;;29.90;10.52;;;7.20;99.90;;;;;;4996524;28;25074;-71
2023/02/11 04:08:53;;;;;;;28.13;10.48;;;7.20;99.90;;;;;;5003655;28;25146;-71
2023/02/11 04:11:19;;;;;;;35.17;11.38;;;7.30;99.90;;;;;;5000888;28;25060;-70
2023/02/11 04:13:44;;;;;;;36.78;11.13;;;7.30;99.90;;;;;;4999591;28;25146;-70
2023/02/11 04:16:10;;;;;;;32.45;10.68;;;7.20;99.90;;;;;;4981581;28;25080;-70
2023/02/11 04:18:35;;;;;;;32.55;10.95;;;7.20;99.90;;;;;;5002534;28;25130;-71
2023/02/11 04:21:01;;;;;;;31.88;11.80;;;7.40;99.90;;;;;;5001913;28;25074;-71
2023/02/11 04:23:26;;;;;;;33.95;11.10;;;7.30;99.90;;;;;;5015253;28;25061;-72
2023/02/11 04:25:52;;;;;;;32.67;11.02;;;7.30;99.90;;;;;;5010563;28;25062;-71
2023/02/11 04:28:17;;;;;;;29.23;10.90;;;7.30;99.90;;;;;;5001491;28;25074;-70
2023/02/11 04:30:43;;;;;;;33.10;10.38;;;7.20;99.90;;;;;;4998965;28;25491;-70
2023/02/11 04:33:08;;;;;;;48.70;11.80;;;7.20;99.90;;;;;;4998642;28;25062;-72
2023/02/11 04:35:34;;;;;;;34.47;12.18;;;7.30;99.90;;;;;;4996519;28;25137;-71
2023/02/11 04:37:59;;;;;;;23.23;10.38;;;7.30;99.90;;;;;;5000496;28;25054;-70
2023/02/11 04:40:25;;;;;;;30.95;11.50;;;7.20;99.90;;;;;;4996096;28;25187;-71
2023/02/11 04:42:51;;;;;;;32.10;11.38;;;7.20;99.90;;;;;;4992260;28;25066;-70
2023/02/11 04:45:17;;;;;;;26.50;10.43;;;7.30;99.90;;;;;;4989121;28;25072;-71
2023/02/11 04:47:42;;;;;;;27.30;11.63;;;7.30;99.90;;;;;;4998494;28;25152;-71
2023/02/11 04:50:08;;;;;;;35.92;11.75;;;7.30;99.90;;;;;;5000472;28;25136;-70
2023/02/11 04:52:34;;;;;;;33.10;12.45;;;7.20;99.90;;;;;;4976609;28;25089;-70
2023/02/11 04:54:59;;;;;;;34.08;11.88;;;7.30;99.90;;;;;;4988121;28;25068;-70
2023/02/11 04:57:25;;;;;;;27.38;11.05;;;7.20;99.90;;;;;;4996144;28;25087;-69
2023/02/11 04:59:50;;;;;;;23.00;10.85;;;7.20;99.90;;;;;;5001721;28;25167;-70
2023/02/11 05:02:16;;;;;;;40.00;12.00;;;7.20;99.90;;;;;;5000704;28;25074;-70
2023/02/11 05:04:41;;;;;;;31.95;12.13;;;7.10;99.90;;;;;;4998960;28;25080;-70
2023/02/11 05:07:07;;;;;;;33.17;10.07;;;7.10;99.90;;;;;;4993320;28;25086;-70
2023/02/11 05:09:32;;;;;;;28.60;12.02;;;7.20;99.90;;;;;;5002532;28;25062;-70
2023/02/11 05:11:58;;;;;;;29.30;11.20;;;7.20;99.90;;;;;;4995517;28;25060;-70
2023/02/11 05:14:23;;;;;;;28.15;10.00;;;7.20;99.90;;;;;;5003386;28;25055;-70
2023/02/11 05:16:49;;;;;;;28.98;11.45;;;7.20;99.90;;;;;;4987310;28;25063;-71
2023/02/11 05:19:14;;;;;;;30.27;11.48;;;7.20;99.90;;;;;;4994846;28;25076;-70
2023/02/11 05:21:40;;;;;;;29.10;10.68;;;7.30;99.90;;;;;;5001929;28;25087;-71
2023/02/11 05:24:06;;;;;;;33.67;12.00;;;7.30;99.90;;;;;;4997922;28;25061;-71
2023/02/11 05:26:32;;;;;;;35.80;12.02;;;7.30;99.90;;;;;;5003887;28;25069;-70
2023/02/11 05:28:58;;;;;;;33.58;11.32;;;7.30;99.90;;;;;;4995200;28;25070;-70
2023/02/11 05:31:23;;;;;;;33.00;12.55;;;7.30;99.90;;;;;;4996549;28;25109;-69
2023/02/11 05:33:49;;;;;;;36.00;12.48;;;7.40;99.90;;;;;;5007064;28;25099;-71
2023/02/11 05:36:15;;;;;;;32.45;11.95;;;7.50;99.90;;;;;;5007053;28;25053;-69
2023/02/11 05:38:42;;;;;;;39.63;13.13;;;7.50;99.90;;;;;;4992760;28;25062;-70
2023/02/11 05:41:08;;;;;;;31.27;11.48;;;7.50;99.90;;;;;;5003371;28;25077;-71
2023/02/11 05:43:35;;;;;;;30.00;13.88;;;7.60;99.90;;;;;;4985421;28;25068;-71
2023/02/11 05:46:01;;;;;;;32.35;11.93;;;7.60;99.90;;;;;;4996424;28;25065;-70
2023/02/11 05:48:27;;;;;;;33.45;12.85;;;7.60;99.90;;;;;;5000677;28;25067;-72
2023/02/11 05:50:52;;;;;;;38.70;13.32;;;7.60;99.90;;;;;;4994603;28;25064;-69
2023/02/11 05:53:18;;;;;;;38.00;13.25;;;7.70;99.90;;;;;;4996628;28;25088;-69
2023/02/11 05:55:43;;;;;;;42.58;13.80;;;7.60;99.90;;;;;;5004771;28;25138;-69
2023/02/11 05:58:09;;;;;;;39.65;13.45;;;7.70;99.90;;;;;;5007825;28;25144;-70
2023/02/11 06:00:35;;;;;;;35.88;14.50;;;7.70;99.90;;;;;;4990638;28;25069;-70
2023/02/11 06:03:00;;;;;;;32.15;12.57;;;7.60;99.90;;;;;;4998524;28;25156;-71
2023/02/11 06:05:26;;;;;;;45.30;15.32;;;7.70;99.90;;;;;;4981603;28;25069;-71
2023/02/11 06:07:52;;;;;;;35.85;12.23;;;7.70;99.90;;;;;;4994984;28;25107;-71
2023/02/11 06:10:17;;;;;;;38.63;12.70;;;7.60;99.90;;;;;;5003576;28;25101;-70
2023/02/11 06:12:43;;;;;;;51.13;14.82;;;7.70;99.90;;;;;;4992531;28;25094;-71
2023/02/11 06:15:09;;;;;;;44.13;13.95;;;7.60;99.90;;;;;;5001402;28;25073;-69
2023/02/11 06:17:35;;;;;;;35.58;13.18;;;7.60;99.90;;;;;;4998179;28;25079;-72
2023/02/11 06:20:02;;;;;;;40.10;14.55;;;7.60;99.90;;;;;;5000038;28;25123;-70
2023/02/11 06:22:28;;;;;;;40.80;14.40;;;7.60;99.90;;;;;;5005600;28;25059;-70
2023/02/11 06:24:53;;;;;;;41.22;14.90;;;7.70;99.90;;;;;;5008412;28;25066;-69
2023/02/11 06:27:19;;;;;;;40.88;15.27;;;7.80;99.90;;;;;;5001509;28;25058;-70
2023/02/11 06:29:45;;;;;;;36.60;13.40;;;7.70;99.90;;;;;;5005790;28;25059;-71
2023/02/11 06:32:11;;;;;;;42.67;14.77;;;7.70;99.90;;;;;;5003662;28;25071;-70
2023/02/11 06:34:37;;;;;;;44.70;15.07;;;7.70;99.90;;;;;;5013981;28;25084;-69
2023/02/11 06:37:04;;;;;;;37.05;14.25;;;7.80;99.90;;;;;;5011232;28;25057;-70
2023/02/11 06:39:29;;;;;;;41.38;15.10;;;7.80;99.90;;;;;;4999517;28;25069;-70
2023/02/11 06:41:55;;;;;;;44.95;15.18;;;7.90;99.90;;;;;;5009304;28;25065;-70
2023/02/11 06:44:20;;;;;;;41.30;16.50;;;7.80;99.90;;;;;;5001135;28;25183;-70
2023/02/11 06:46:47;;;;;;;50.50;15.35;;;7.90;99.90;;;;;;5002367;28;25154;-71
2023/02/11 06:49:12;;;;;;;50.28;16.98;;;8.00;99.90;;;;;;4999810;28;25074;-71
2023/02/11 06:51:38;;;;;;;43.13;16.45;;;8.00;99.90;;;;;;4998740;28;25051;-68
2023/02/11 06:54:05;;;;;;;38.08;15.38;;;8.00;99.90;;;;;;4999491;28;25130;-71
2023/02/11 06:56:31;;;;;;;54.03;16.75;;;8.00;99.90;;;;;;4999485;28;25066;-71
2023/02/11 06:58:56;;;;;;;43.15;16.13;;;8.00;99.90;;;;;;4979504;28;25013;-71
2023/02/11 07:01:23;;;;;;;43.15;17.38;;;8.10;99.90;;;;;;4997753;28;25675;-69
2023/02/11 07:03:50;;;;;;;39.95;16.10;;;8.10;99.90;;;;;;5002030;28;25072;-70
2023/02/11 07:06:20;;;;;;;44.90;17.60;;;8.30;99.90;;;;;;4981249;28;25052;-70
2023/02/11 07:08:46;;;;;;;43.42;16.38;;;8.30;99.90;;;;;;5008663;28;25055;-71
2023/02/11 07:11:23;;;;;;;46.97;16.70;;;8.10;99.90;;;;;;5000702;28;25065;-70
2023/02/11 07:13:49;;;;;;;50.60;15.15;;;8.30;99.90;;;;;;4984047;28;25119;-71
2023/02/11 07:16:16;;;;;;;43.80;16.20;;;8.30;99.90;;;;;;4979669;28;25057;-71
2023/02/11 07:18:43;;;;;;;44.30;17.77;;;8.20;99.90;;;;;;5001896;28;25106;-71
2023/02/11 07:21:10;;;;;;;46.42;16.73;;;8.20;99.90;;;;;;4996543;28;25163;-70
2023/02/11 07:23:38;;;;;;;49.58;18.60;;;8.30;99.90;;;;;;4996649;28;25059;-69
2023/02/11 07:26:05;;;;;;;49.20;17.50;;;8.30;99.90;;;;;;4996096;28;25067;-70
2023/02/11 07:28:31;;;;;;;48.05;17.60;;;8.20;99.90;;;;;;4984605;28;25086;-71
2023/02/11 07:30:57;;;;;;;49.65;17.65;;;8.30;99.90;;;;;;4996915;28;25135;-70
2023/02/11 07:33:23;;;;;;;47.47;17.55;;;8.30;99.90;;;;;;4993999;28;25087;-70
2023/02/11 07:35:48;;;;;;;53.22;18.85;;;8.40;99.90;;;;;;4976298;28;25147;-69
2023/02/11 07:38:14;;;;;;;59.40;20.13;;;8.40;99.90;;;;;;4981891;28;25086;-71
2023/02/11 07:40:39;;;;;;;43.92;17.33;;;8.20;99.90;;;;;;4994184;28;25059;-69
2023/02/11 07:43:05;;;;;;;47.92;17.63;;;8.30;99.90;;;;;;4996414;28;25155;-71
2023/02/11 07:45:30;;;;;;;43.97;17.58;;;8.30;99.90;;;;;;5008300;28;25064;-70
2023/02/11 07:47:56;;;;;;;50.72;17.92;;;8.50;99.90;;;;;;5000358;28;25106;-71
2023/02/11 07:50:22;;;;;;;51.35;18.60;;;8.60;99.90;;;;;;5000274;28;25106;-70
2023/02/11 07:52:47;;;;;;;41.33;18.17;;;8.50;99.90;;;;;;4995256;28;25056;-71
2023/02/11 07:55:13;;;;;;;57.45;18.33;;;8.60;99.90;;;;;;4994572;28;25124;-71
2023/02/11 07:57:40;;;;;;;48.55;17.48;;;8.60;99.90;;;;;;5000851;28;25107;-71
2023/02/11 08:00:05;;;;;;;44.78;18.73;;;8.50;99.90;;;;;;4999048;28;25067;-70
2023/02/11 08:02:31;;;;;;;47.42;17.67;;;8.50;99.90;;;;;;4994436;28;25051;-70
2023/02/11 08:04:57;;;;;;;44.75;19.15;;;8.60;99.90;;;;;;4996823;28;25075;-70
2023/02/11 08:07:22;;;;;;;62.50;18.50;;;8.60;99.90;;;;;;4992428;28;25059;-70
2023/02/11 08:09:48;;;;;;;43.70;17.13;;;8.80;99.90;;;;;;5000428;28;25149;-69
2023/02/11 08:12:13;;;;;;;42.15;18.17;;;8.90;99.90;;;;;;4996257;28;25144;-69
2023/02/11 08:14:39;;;;;;;53.35;18.10;;;8.90;99.90;;;;;;4997398;28;25071;-70
2023/02/11 08:17:04;;;;;;;54.28;19.48;;;9.00;99.90;;;;;;4974730;28;25062;-69
2023/02/11 08:19:30;;;;;;;49.67;18.98;;;8.90;99.90;;;;;;4994513;28;25083;-69
2023/02/11 08:21:56;;;;;;;55.60;19.58;;;8.90;99.90;;;;;;4994303;28;25056;-68
2023/02/11 08:24:22;;;;;;;45.17;16.88;;;9.20;99.90;;;;;;4990840;28;25154;-68
2023/02/11 08:26:48;;;;;;;51.40;18.05;;;9.10;99.90;;;;;;4992867;28;25088;-71
2023/02/11 08:29:15;;;;;;;46.10;19.13;;;9.20;99.90;;;;;;4997025;28;25151;-71
2023/02/11 08:31:43;;;;;;;50.35;19.67;;;9.20;99.90;;;;;;4999158;28;25123;-69
2023/02/11 08:34:10;;;;;;;52.35;18.05;;;9.20;99.90;;;;;;4999023;28;25146;-68
2023/02/11 08:36:37;;;;;;;47.20;19.33;;;9.30;99.90;;;;;;4998103;28;25081;-70
2023/02/11 08:39:05;;;;;;;48.28;19.48;;;9.30;99.90;;;;;;4999117;28;25144;-67
2023/02/11 08:41:32;;;;;;;53.00;19.42;;;9.30;99.90;;;;;;5000133;28;25137;-70
2023/02/11 08:43:58;;;;;;;42.75;16.85;;;9.30;99.90;;;;;;4987993;28;25070;-68
2023/02/11 08:46:24;;;;;;;54.08;17.75;;;9.50;99.90;;;;;;4994776;28;25053;-67
2023/02/11 08:48:50;;;;;;;42.08;17.13;;;9.50;99.90;;;;;;4997506;28;25078;-68
2023/02/11 08:51:26;;;;;;;48.60;18.20;;;9.60;99.90;;;;;;4991264;28;25074;-68
2023/02/11 08:53:53;;;;;;;44.60;17.80;;;9.80;99.90;;;;;;4995661;28;25052;-67
2023/02/11 08:56:20;;;;;;;50.55;17.70;;;9.80;99.90;;;;;;4988542;28;25060;-67
2023/02/11 08:58:46;;;;;;;46.42;17.52;;;9.70;99.90;;;;;;5001868;28;25061;-70
2023/02/11 09:01:14;;;;;;;50.72;19.20;;;9.80;99.90;;;;;;4996362;28;25065;-70
2023/02/11 09:03:40;;;;;;;53.97;18.13;;;9.90;99.90;;;;;;4996066;28;25060;-69
2023/02/11 09:06:07;;;;;;;46.15;20.15;;;9.80;99.90;;;;;;4998008;28;25056;-70
2023/02/11 09:08:34;;;;;;;46.38;18.30;;;9.90;99.90;;;;;;4997861;28;25052;-72
2023/02/11 09:11:01;;;;;;;45.38;17.42;;;10.10;99.90;;;;;;4993495;28;25087;-69
2023/02/11 09:13:26;;;;;;;38.65;16.80;;;10.00;99.90;;;;;;4980537;28;25057;-69
2023/02/11 09:15:52;;;;;;;46.67;18.10;;;10.00;99.90;;;;;;4998618;28;25085;-68
2023/02/11 09:18:18;;;;;;;54.20;18.60;;;10.00;99.90;;;;;;4996366;28;25077;-69
2023/02/11 09:20:44;;;;;;;46.83;17.45;;;10.10;99.90;;;;;;4987084;28;25089;-70
2023/02/11 09:23:10;;;;;;;47.20;17.85;;;10.10;99.90;;;;;;5003710;28;25081;-69
2023/02/11 09:25:39;;;;;;;45.72;18.63;;;10.20;99.90;;;;;;4998716;28;25066;-69
2023/02/11 09:28:05;;;;;;;45.85;17.10;;;10.10;99.90;;;;;;5007178;28;25070;-68
2023/02/11 09:30:31;;;;;;;48.55;19.25;;;10.30;99.90;;;;;;5001168;28;25064;-69
2023/02/11 09:32:56;;;;;;;48.35;17.83;;;10.40;99.90;;;;;;4999298;28;25063;-70
2023/02/11 09:35:22;;;;;;;48.30;18.48;;;10.30;99.90;;;;;;4997899;28;25123;-69
2023/02/11 09:37:47;;;;;;;41.38;17.48;;;10.30;99.90;;;;;;4998991;28;25056;-70
2023/02/11 09:40:14;;;;;;;48.75;18.40;;;10.50;99.90;;;;;;4990168;28;25062;-68
2023/02/11 09:43:03;;;;;;;38.97;17.05;;;10.50;99.90;;;;;;4984150;28;25074;-71
2023/02/11 09:45:31;;;;;;;41.65;18.55;;;10.40;99.90;;;;;;4996949;28;25077;-70
2023/02/11 09:48:04;;;;;;;40.50;16.88;;;10.40;99.90;;;;;;4995694;28;25082;-69
2023/02/11 09:50:35;;;;;;;49.20;18.20;;;10.40;99.90;;;;;;4997560;28;25070;-70
2023/02/11 09:53:20;;;;;;;50.03;18.60;;;10.40;99.90;;;;;;4992926;28;25067;-70
2023/02/11 09:55:48;;;;;;;42.22;17.85;;;10.50;99.90;;;;;;4996596;28;25080;-69
2023/02/11 09:58:32;;;;;;;41.90;17.38;;;10.40;99.90;;;;;;4992903;28;25077;-70
2023/02/11 10:01:03;;;;;;;45.42;18.35;;;10.40;99.90;;;;;;4993376;28;25048;-68
2023/02/11 10:03:55;;;;;;;48.47;18.25;;;10.60;99.90;;;;;;4993661;28;25111;-71
2023/02/11 10:06:42;;;;;;;46.07;17.73;;;10.50;99.90;;;;;;4994111;28;25073;-72
2023/02/11 10:09:27;;;;;;;46.13;18.75;;;10.60;99.90;;;;;;4991547;28;25138;-70
2023/02/11 10:11:53;;;;;;;40.65;17.60;;;10.60;99.90;;;;;;4990941;28;25064;-70
2023/02/11 10:14:56;;;;;;;44.92;18.17;;;10.60;99.90;;;;;;4991600;28;25055;-69
2023/02/11 10:17:33;;;;;;;;;;;10.60;99.90;;;;;;4989259;28;25074;-71
2023/02/11 10:20:37;;;;;;;37.42;15.57;;;10.60;99.90;;;;;;4993740;28;24077;-71
2023/02/11 10:23:14;;;;;;;41.72;17.45;;;10.70;99.90;;;;;;4997807;28;25072;-69
2023/02/11 10:25:43;;;;;;;38.05;16.23;;;10.70;99.90;;;;;;5004934;28;25057;-69
2023/02/11 10:28:15;;;;;;;36.58;15.75;;;10.70;99.90;;;;;;4994255;28;25126;-68
2023/02/11 10:30:56;;;;;;;34.65;16.52;;;10.70;99.90;;;;;;4989992;28;25098;-69
2023/02/11 10:33:27;;;;;;;45.90;18.15;;;10.90;99.90;;;;;;4978189;28;25059;-70
2023/02/11 10:35:53;;;;;;;44.33;16.63;;;10.80;99.90;;;;;;4995606;28;25058;-70
2023/02/11 10:38:18;;;;;;;35.75;16.92;;;10.80;99.90;;;;;;5000035;28;25053;-69
2023/02/11 10:40:44;;;;;;;39.17;16.00;;;10.80;99.90;;;;;;5002967;28;25081;-69
2023/02/11 10:43:13;;;;;;;45.72;18.10;;;10.90;99.90;;;;;;4996919;28;25061;-70
2023/02/11 10:45:41;;;;;;;39.63;18.77;;;10.90;99.90;;;;;;5000882;28;25067;-70
2023/02/11 10:48:44;;;;;;;38.30;16.95;;;10.80;99.90;;;;;;5001292;28;25079;-69
2023/02/11 10:51:12;;;;;;;42.92;17.02;;;10.70;99.90;;;;;;5001644;28;25083;-69
2023/02/11 10:53:38;;;;;;;37.75;16.52;;;10.70;99.90;;;;;;4990151;28;25080;-68
2023/02/11 10:56:06;;;;;;;41.22;17.90;;;10.80;99.90;;;;;;4977297;28;25093;-69
2023/02/11 10:58:43;;;;;;;40.25;16.92;;;11.00;99.90;;;;;;4996854;28;25136;-69
2023/02/11 11:01:09;;;;;;;41.22;16.45;;;11.10;99.90;;;;;;4989782;28;25109;-73
2023/02/11 11:03:53;;;;;;;40.13;16.40;;;10.90;99.90;;;;;;4993489;28;25099;-70
2023/02/11 11:06:45;;;;;;;43.03;17.00;;;11.00;99.90;;;;;;4996208;28;25082;-70
2023/02/11 11:09:41;;;;;;;41.50;16.83;;;10.90;99.90;;;;;;4993421;28;25135;-69
2023/02/11 11:12:30;;;;;;;37.13;15.45;;;11.00;99.90;;;;;;4995835;28;25110;-69
2023/02/11 11:15:21;;;;;;;42.50;15.18;;;11.10;99.90;;;;;;4997112;28;25075;-70
2023/02/11 11:18:07;;;;;;;42.10;18.58;;;10.90;99.90;;;;;;4997341;28;25071;-69
2023/02/11 11:20:35;;;;;;;41.00;15.50;;;10.70;99.90;;;;;;5002284;28;25074;-70
2023/02/11 11:23:14;;;;;;;39.00;16.50;;;10.70;99.90;;;;;;4998121;28;25049;-68
2023/02/11 11:25:44;;;;;;;33.30;14.95;;;10.90;99.90;;;;;;5005665;28;25053;-69
2023/02/11 11:28:23;;;;;;;39.85;16.17;;;11.20;99.90;;;;;;5002895;28;25079;-69
2023/02/11 11:30:52;;;;;;;47.75;16.65;;;11.30;99.90;;;;;;5001416;28;25110;-68
2023/02/11 11:33:34;;;;;;;42.28;17.08;;;11.20;99.90;;;;;;5000229;28;25068;-71
2023/02/11 11:36:12;;;;;;;38.58;15.93;;;11.20;99.90;;;;;;5006855;28;25066;-69
2023/02/11 11:38:54;;;;;;;38.17;16.30;;;11.00;99.90;;;;;;5006928;28;25062;-70
2023/02/11 11:41:24;;;;;;;31.80;15.18;;;10.80;99.90;;;;;;5002004;28;25061;-68
2023/02/11 11:44:24;;;;;;;45.63;16.25;;;10.90;99.90;;;;;;5000009;28;25145;-70
2023/02/11 11:47:12;;;;;;;40.70;14.88;;;11.00;99.90;;;;;;4995997;28;25110;-70
2023/02/11 11:50:13;;;;;;;42.83;16.38;;;11.00;99.90;;;;;;4999592;28;25075;-69
2023/02/11 11:52:49;;;;;;;33.90;16.55;;;11.20;99.90;;;;;;4996677;28;25082;-69
2023/02/11 11:55:46;;;;;;;32.97;15.55;;;11.40;99.90;;;;;;4993719;28;25067;-69
2023/02/11 11:58:19;;;;;;;32.10;14.73;;;11.20;99.90;;;;;;4997873;28;25113;-71
2023/02/11 12:01:39;;;;;;;36.58;15.40;;;11.20;99.90;;;;;;5001068;28;25179;-69
2023/02/11 12:04:31;;;;;;;36.13;17.05;;;11.20;99.90;;;;;;4991811;28;25078;-70
2023/02/11 12:07:21;;;;;;;35.70;15.57;;;11.30;99.90;;;;;;5000684;28;25129;-71
2023/02/11 12:10:14;;;;;;;34.28;17.23;;;11.30;99.90;;;;;;4998542;28;25083;-70
2023/02/11 12:13:01;;;;;;;34.63;15.20;;;11.10;99.90;;;;;;4998200;28;25066;-70
2023/02/11 12:15:29;;;;;;;35.33;15.18;;;11.10;99.90;;;;;;4994579;28;25133;-68
2023/02/11 12:18:01;;;;;;;33.20;14.68;;;11.10;99.90;;;;;;4993507;28;25074;-68
2023/02/11 12:21:07;;;;;;;37.07;15.43;;;11.00;99.90;;;;;;5000021;28;25161;-69
2023/02/11 12:24:00;;;;;;;32.70;15.48;;;11.00;99.90;;;;;;4998779;28;25142;-70
2023/02/11 12:26:42;;;;;;;30.77;13.30;;;10.90;99.90;;;;;;4992591;28;25081;-71
2023/02/11 12:29:29;;;;;;;30.63;13.93;;;11.00;99.90;;;;;;4993929;28;25103;-68
2023/02/11 12:32:09;;;;;;;32.25;14.02;;;10.90;99.90;;;;;;4992032;28;25071;-69
2023/02/11 12:35:29;;;;;;;34.08;13.38;;;10.90;99.90;;;;;;4992057;28;25149;-69
2023/02/11 12:38:26;;;;;;;30.90;14.32;;;10.90;99.90;;;;;;4935277;28;25129;-70
2023/02/11 12:41:09;;;;;;;26.60;14.32;;;11.00;99.90;;;;;;4998833;28;25067;-69
2023/02/11 12:43:42;;;;;;;25.52;12.95;;;10.90;99.90;;;;;;4998982;28;25086;-70
2023/02/11 12:46:23;;;;;;;39.03;13.40;;;10.90;99.90;;;;;;4991390;28;25087;-71
2023/02/11 12:48:54;;;;;;;28.13;14.32;;;11.00;99.90;;;;;;4994808;28;25085;-69
2023/02/11 12:51:31;;;;;;;32.83;13.65;;;11.00;99.90;;;;;;4994544;28;25076;-69
2023/02/11 12:54:09;;;;;;;26.60;13.52;;;11.00;99.90;;;;;;4995885;28;25075;-71
2023/02/11 12:56:53;;;;;;;29.80;14.02;;;10.90;99.90;;;;;;4994958;28;25059;-69
2023/02/11 12:59:57;;;;;;;33.35;14.77;;;10.80;99.90;;;;;;5001911;28;25051;-70
2023/02/11 13:02:35;;;;;;;30.83;14.32;;;10.90;99.90;;;;;;4971130;28;25063;-71
2023/02/11 13:05:23;;;;;;;30.75;13.95;;;11.20;99.90;;;;;;4973968;28;25069;-70